sensor_id;sensor_type;location;lat;lon;timestamp;pressure;altitude;pressure_sealevel;temperature
67509;BMP280;54354;44.724;11.284;2023-02-28T00:01:20;102069.22;;;12.98
67509;BMP280;54354;44.724;11.284;2023-02-28T00:03:46;102070.38;;;12.97
67509;BMP280;54354;44.724;11.284;2023-02-28T00:06:11;102071.53;;;12.99
67509;BMP280;54354;44.724;11.284;2023-02-28T00:08:38;102069.63;;;13.00
67509;BMP280;54354;44.724;11.284;2023-02-28T00:11:10;102062.78;;;12.95
67509;BMP280;54354;44.724;11.284;2023-02-28T00:13:38;102068.13;;;12.95
67509;BMP280;54354;44.724;11.284;2023-02-28T00:16:07;102065.84;;;12.94
67509;BMP280;54354;44.724;11.284;2023-02-28T00:18:34;102079.84;;;13.02
67509;BMP280;54354;44.724;11.284;2023-02-28T00:21:00;102085.19;;;12.98
67509;BMP280;54354;44.724;11.284;2023-02-28T00:23:26;102085.56;;;12.96
67509;BMP280;54354;44.724;11.284;2023-02-28T00:25:52;102082.13;;;12.96
67509;BMP280;54354;44.724;11.284;2023-02-28T00:28:18;102081.41;;;12.95
67509;BMP280;54354;44.724;11.284;2023-02-28T00:30:43;102089.00;;;12.97
67509;BMP280;54354;44.724;11.284;2023-02-28T00:33:09;102095.06;;;12.97
67509;BMP280;54354;44.724;11.284;2023-02-28T00:35:35;102090.91;;;12.96
67509;BMP280;54354;44.724;11.284;2023-02-28T00:38:00;102088.25;;;12.96
67509;BMP280;54354;44.724;11.284;2023-02-28T00:40:26;102090.53;;;12.94
67509;BMP280;54354;44.724;11.284;2023-02-28T00:42:52;102087.88;;;12.94
67509;BMP280;54354;44.724;11.284;2023-02-28T00:45:17;102080.25;;;12.96
67509;BMP280;54354;44.724;11.284;2023-02-28T00:47:43;102076.81;;;12.96
67509;BMP280;54354;44.724;11.284;2023-02-28T00:50:09;102084.81;;;12.92
67509;BMP280;54354;44.724;11.284;2023-02-28T00:52:36;102075.34;;;12.91
67509;BMP280;54354;44.724;11.284;2023-02-28T00:55:01;102085.59;;;12.93
67509;BMP280;54354;44.724;11.284;2023-02-28T00:57:27;102085.59;;;12.93
67509;BMP280;54354;44.724;11.284;2023-02-28T00:59:52;102095.84;;;12.91
67509;BMP280;54354;44.724;11.284;2023-02-28T01:02:21;102097.00;;;12.86
67509;BMP280;54354;44.724;11.284;2023-02-28T01:04:47;102094.34;;;12.86
67509;BMP280;54354;44.724;11.284;2023-02-28T01:07:13;102101.22;;;12.87
67509;BMP280;54354;44.724;11.284;2023-02-28T01:09:40;102099.28;;;12.84
67509;BMP280;54354;44.724;11.284;2023-02-28T01:12:07;102095.09;;;12.83
67509;BMP280;54354;44.724;11.284;2023-02-28T01:14:32;102102.72;;;12.85
67509;BMP280;54354;44.724;11.284;2023-02-28T01:16:58;102100.44;;;12.87
67509;BMP280;54354;44.724;11.284;2023-02-28T01:19:24;102106.53;;;12.87
67509;BMP280;54354;44.724;11.284;2023-02-28T01:21:49;102108.78;;;12.85
67509;BMP280;54354;44.724;11.284;2023-02-28T01:24:15;102100.44;;;12.87
67509;BMP280;54354;44.724;11.284;2023-02-28T01:26:41;102103.09;;;12.87
67509;BMP280;54354;44.724;11.284;2023-02-28T01:29:07;102102.72;;;12.85
67509;BMP280;54354;44.724;11.284;2023-02-28T01:31:32;102100.44;;;12.83
67509;BMP280;54354;44.724;11.284;2023-02-28T01:33:58;102098.19;;;12.82
67509;BMP280;54354;44.724;11.284;2023-02-28T01:36:27;102093.63;;;12.79
67509;BMP280;54354;44.724;11.284;2023-02-28T01:38:54;102104.63;;;12.77
67509;BMP280;54354;44.724;11.284;2023-02-28T01:41:27;102096.69;;;12.73
67509;BMP280;54354;44.724;11.284;2023-02-28T01:43:57;102100.09;;;12.74
67509;BMP280;54354;44.724;11.284;2023-02-28T01:46:23;102094.34;;;12.83
67509;BMP280;54354;44.724;11.284;2023-02-28T01:49:15;102102.31;;;12.93
67509;BMP280;54354;44.724;11.284;2023-02-28T01:51:43;102100.81;;;12.85
67509;BMP280;54354;44.724;11.284;2023-02-28T01:54:28;102104.63;;;12.81
67509;BMP280;54354;44.724;11.284;2023-02-28T01:57:01;102106.53;;;12.77
67509;BMP280;54354;44.724;11.284;2023-02-28T02:01:57;102111.06;;;12.83
67509;BMP280;54354;44.724;11.284;2023-02-28T02:04:26;102104.63;;;12.77
67509;BMP280;54354;44.724;11.284;2023-02-28T02:06:53;102092.59;;;13.39
67509;BMP280;54354;44.724;11.284;2023-02-28T02:09:19;102106.81;;;13.04
67509;BMP280;54354;44.724;11.284;2023-02-28T02:11:44;102099.22;;;12.98
67509;BMP280;54354;44.724;11.284;2023-02-28T02:17:10;102085.97;;;12.95
67509;BMP280;54354;44.724;11.284;2023-02-28T02:36:57;102075.66;;;13.04
67509;BMP280;54354;44.724;11.284;2023-02-28T02:42:14;102065.81;;;13.01
67509;BMP280;54354;44.724;11.284;2023-02-28T02:44:45;102069.97;;;13.02
67509;BMP280;54354;44.724;11.284;2023-02-28T02:47:15;102077.16;;;13.05
67509;BMP280;54354;44.724;11.284;2023-02-28T02:49:55;102079.41;;;13.17
67509;BMP280;54354;44.724;11.284;2023-02-28T02:52:27;102080.53;;;13.16
67509;BMP280;54354;44.724;11.284;2023-02-28T02:54:57;102083.97;;;13.13
67509;BMP280;54354;44.724;11.284;2023-02-28T02:57:31;102080.19;;;13.14
67509;BMP280;54354;44.724;11.284;2023-02-28T02:59:59;102080.19;;;13.14
67509;BMP280;54354;44.724;11.284;2023-02-28T03:02:28;102085.50;;;13.11
67509;BMP280;54354;44.724;11.284;2023-02-28T03:05:02;102084.41;;;13.08
67509;BMP280;54354;44.724;11.284;2023-02-28T03:07:28;102090.44;;;13.16
67509;BMP280;54354;44.724;11.284;2023-02-28T03:09:56;102089.69;;;13.12
67509;BMP280;54354;44.724;11.284;2023-02-28T03:12:28;102081.75;;;13.08
67509;BMP280;54354;44.724;11.284;2023-02-28T03:25:42;102078.69;;;13.06
67509;BMP280;54354;44.724;11.284;2023-02-28T03:31:19;102086.63;;;13.20
67509;BMP280;54354;44.724;11.284;2023-02-28T03:33:51;102083.63;;;13.08
67509;BMP280;54354;44.724;11.284;2023-02-28T03:36:29;102091.63;;;13.04
67509;BMP280;54354;44.724;11.284;2023-02-28T03:39:04;102095.03;;;13.05
67509;BMP280;54354;44.724;11.284;2023-02-28T03:41:45;102094.66;;;13.03
67509;BMP280;54354;44.724;11.284;2023-02-28T03:44:22;102095.06;;;13.01
67509;BMP280;54354;44.724;11.284;2023-02-28T03:47:03;102096.19;;;13.04
67509;BMP280;54354;44.724;11.284;2023-02-28T03:49:56;102106.81;;;13.04
67509;BMP280;54354;44.724;11.284;2023-02-28T03:52:27;102109.50;;;12.96
67509;BMP280;54354;44.724;11.284;2023-02-28T03:54:58;102104.97;;;12.93
67509;BMP280;54354;44.724;11.284;2023-02-28T03:57:41;102106.84;;;13.00
67509;BMP280;54354;44.724;11.284;2023-02-28T04:00:15;102111.41;;;12.92
67509;BMP280;54354;44.724;11.284;2023-02-28T04:02:41;102114.81;;;12.96
67509;BMP280;54354;44.724;11.284;2023-02-28T04:05:07;102112.53;;;12.98
67509;BMP280;54354;44.724;11.284;2023-02-28T04:07:33;102115.19;;;12.98
67509;BMP280;54354;44.724;11.284;2023-02-28T04:09:59;102114.44;;;12.98
67509;BMP280;54354;44.724;11.284;2023-02-28T04:12:25;102104.19;;;13.00
67509;BMP280;54354;44.724;11.284;2023-02-28T04:14:50;102109.13;;;12.98
67509;BMP280;54354;44.724;11.284;2023-02-28T04:17:16;102112.16;;;13.00
67509;BMP280;54354;44.724;11.284;2023-02-28T04:19:42;102112.16;;;13.00
67509;BMP280;54354;44.724;11.284;2023-02-28T04:22:09;102108.34;;;13.01
67509;BMP280;54354;44.724;11.284;2023-02-28T04:24:35;102114.06;;;12.99
67509;BMP280;54354;44.724;11.284;2023-02-28T04:27:00;102115.59;;;12.97
67509;BMP280;54354;44.724;11.284;2023-02-28T04:29:29;102103.88;;;12.87
67509;BMP280;54354;44.724;11.284;2023-02-28T04:31:55;102105.38;;;12.88
67509;BMP280;54354;44.724;11.284;2023-02-28T04:34:28;102105.38;;;12.88
67509;BMP280;54354;44.724;11.284;2023-02-28T04:36:55;102108.78;;;12.89
67509;BMP280;54354;44.724;11.284;2023-02-28T04:39:22;102108.78;;;12.89
67509;BMP280;54354;44.724;11.284;2023-02-28T04:41:48;102109.91;;;12.91
67509;BMP280;54354;44.724;11.284;2023-02-28T04:44:15;102111.81;;;12.91
67509;BMP280;54354;44.724;11.284;2023-02-28T04:46:41;102114.84;;;12.89
67509;BMP280;54354;44.724;11.284;2023-02-28T04:49:09;102112.19;;;12.86
67509;BMP280;54354;44.724;11.284;2023-02-28T04:51:35;102114.47;;;12.91
67509;BMP280;54354;44.724;11.284;2023-02-28T04:54:01;102124.34;;;12.90
67509;BMP280;54354;44.724;11.284;2023-02-28T04:56:26;102120.16;;;12.89
67509;BMP280;54354;44.724;11.284;2023-02-28T04:58:52;102125.09;;;12.91
67509;BMP280;54354;44.724;11.284;2023-02-28T05:01:29;102113.72;;;12.83
67509;BMP280;54354;44.724;11.284;2023-02-28T05:03:57;102121.34;;;12.78
67509;BMP280;54354;44.724;11.284;2023-02-28T05:06:24;102124.38;;;12.76
67509;BMP280;54354;44.724;11.284;2023-02-28T05:08:51;102127.41;;;12.78
67509;BMP280;54354;44.724;11.284;2023-02-28T05:11:22;102125.91;;;12.73
67509;BMP280;54354;44.724;11.284;2023-02-28T05:13:49;102127.41;;;12.78
67509;BMP280;54354;44.724;11.284;2023-02-28T05:16:15;102126.28;;;12.79
67509;BMP280;54354;44.724;11.284;2023-02-28T05:18:42;102124.75;;;12.78
67509;BMP280;54354;44.724;11.284;2023-02-28T05:21:24;102130.06;;;12.85
67509;BMP280;54354;44.724;11.284;2023-02-28T05:23:50;102136.16;;;12.82
67509;BMP280;54354;44.724;11.284;2023-02-28T05:26:16;102131.97;;;12.81
67509;BMP280;54354;44.724;11.284;2023-02-28T05:28:41;102131.22;;;12.81
67509;BMP280;54354;44.724;11.284;2023-02-28T05:31:10;102131.59;;;12.76
67509;BMP280;54354;44.724;11.284;2023-02-28T05:33:36;102130.84;;;12.71
67509;BMP280;54354;44.724;11.284;2023-02-28T05:36:02;102132.75;;;12.71
67509;BMP280;54354;44.724;11.284;2023-02-28T05:38:28;102140.00;;;12.67
67509;BMP280;54354;44.724;11.284;2023-02-28T05:40:53;102133.13;;;12.66
67509;BMP280;54354;44.724;11.284;2023-02-28T05:43:18;102137.34;;;12.67
67509;BMP280;54354;44.724;11.284;2023-02-28T05:45:44;102140.75;;;12.67
67509;BMP280;54354;44.724;11.284;2023-02-28T05:48:09;102144.91;;;12.65
67509;BMP280;54354;44.724;11.284;2023-02-28T05:50:35;102133.53;;;12.68
67509;BMP280;54354;44.724;11.284;2023-02-28T05:53:01;102144.53;;;12.66
67509;BMP280;54354;44.724;11.284;2023-02-28T05:55:27;102147.56;;;12.68
67509;BMP280;54354;44.724;11.284;2023-02-28T05:57:52;102144.88;;;12.72
67509;BMP280;54354;44.724;11.284;2023-02-28T06:00:18;102139.97;;;12.70
67509;BMP280;54354;44.724;11.284;2023-02-28T06:02:44;102157.81;;;12.73
67509;BMP280;54354;44.724;11.284;2023-02-28T06:05:18;102145.31;;;12.67
67509;BMP280;54354;44.724;11.284;2023-02-28T06:07:44;102158.97;;;12.72
67509;BMP280;54354;44.724;11.284;2023-02-28T06:10:10;102158.19;;;12.72
67509;BMP280;54354;44.724;11.284;2023-02-28T06:12:37;102167.69;;;12.73
67509;BMP280;54354;44.724;11.284;2023-02-28T06:15:03;102165.78;;;12.70
67509;BMP280;54354;44.724;11.284;2023-02-28T06:17:29;102166.91;;;12.69
67509;BMP280;54354;44.724;11.284;2023-02-28T06:19:54;102170.72;;;12.71
67509;BMP280;54354;44.724;11.284;2023-02-28T06:22:20;102171.47;;;12.72
67509;BMP280;54354;44.724;11.284;2023-02-28T06:24:46;102177.53;;;12.69
67509;BMP280;54354;44.724;11.284;2023-02-28T06:27:11;102184.75;;;12.72
67509;BMP280;54354;44.724;11.284;2023-02-28T06:29:37;102183.63;;;12.73
67509;BMP280;54354;44.724;11.284;2023-02-28T06:32:05;102187.06;;;12.73
67509;BMP280;54354;44.724;11.284;2023-02-28T06:34:31;102193.53;;;12.72
67509;BMP280;54354;44.724;11.284;2023-02-28T06:36:56;102188.19;;;12.72
67509;BMP280;54354;44.724;11.284;2023-02-28T06:39:22;102194.63;;;12.75
67509;BMP280;54354;44.724;11.284;2023-02-28T06:41:47;102197.69;;;12.73
67509;BMP280;54354;44.724;11.284;2023-02-28T06:44:17;102193.47;;;12.69
67509;BMP280;54354;44.724;11.284;2023-02-28T06:46:44;102202.63;;;12.82
67509;BMP280;54354;44.724;11.284;2023-02-28T06:49:10;102202.19;;;12.84
67509;BMP280;54354;44.724;11.284;2023-02-28T06:51:39;102204.50;;;12.85
67509;BMP280;54354;44.724;11.284;2023-02-28T06:54:05;102209.44;;;12.94
67509;BMP280;54354;44.724;11.284;2023-02-28T06:56:34;102204.44;;;12.96
67509;BMP280;54354;44.724;11.284;2023-02-28T06:59:00;102209.41;;;12.97
67509;BMP280;54354;44.724;11.284;2023-02-28T07:01:26;102209.03;;;12.99
67509;BMP280;54354;44.724;11.284;2023-02-28T07:03:53;102212.47;;;12.99
67509;BMP280;54354;44.724;11.284;2023-02-28T07:06:20;102215.47;;;13.02
67509;BMP280;54354;44.724;11.284;2023-02-28T07:08:48;102210.94;;;13.06
67509;BMP280;54354;44.724;11.284;2023-02-28T07:11:14;102213.94;;;13.08
67509;BMP280;54354;44.724;11.284;2023-02-28T07:13:39;102217.72;;;13.10
67509;BMP280;54354;44.724;11.284;2023-02-28T07:16:07;102215.84;;;13.14
67509;BMP280;54354;44.724;11.284;2023-02-28T07:18:34;102210.88;;;13.20
67509;BMP280;54354;44.724;11.284;2023-02-28T07:21:02;102209.75;;;13.17
67509;BMP280;54354;44.724;11.284;2023-02-28T07:23:28;102218.47;;;13.21
67509;BMP280;54354;44.724;11.284;2023-02-28T07:25:53;102218.06;;;13.23
67509;BMP280;54354;44.724;11.284;2023-02-28T07:28:19;102216.94;;;13.24
67509;BMP280;54354;44.724;11.284;2023-02-28T07:30:44;102219.59;;;13.24
67509;BMP280;54354;44.724;11.284;2023-02-28T07:33:10;102218.84;;;13.20
67509;BMP280;54354;44.724;11.284;2023-02-28T07:35:36;102223.81;;;13.18
67509;BMP280;54354;44.724;11.284;2023-02-28T07:38:02;102227.97;;;13.19
67509;BMP280;54354;44.724;11.284;2023-02-28T07:40:28;102225.72;;;13.21
67509;BMP280;54354;44.724;11.284;2023-02-28T07:42:53;102223.41;;;13.27
67509;BMP280;54354;44.724;11.284;2023-02-28T07:45:19;102224.88;;;13.31
67509;BMP280;54354;44.724;11.284;2023-02-28T07:47:45;102224.13;;;13.31
67509;BMP280;54354;44.724;11.284;2023-02-28T07:50:13;102228.69;;;13.30
67509;BMP280;54354;44.724;11.284;2023-02-28T07:52:39;102225.66;;;13.32
67509;BMP280;54354;44.724;11.284;2023-02-28T07:55:05;102221.09;;;13.32
67509;BMP280;54354;44.724;11.284;2023-02-28T07:57:31;102230.56;;;13.37
67509;BMP280;54354;44.724;11.284;2023-02-28T07:59:57;102231.72;;;13.39
67509;BMP280;54354;44.724;11.284;2023-02-28T08:02:23;102233.19;;;13.44
67509;BMP280;54354;44.724;11.284;2023-02-28T08:04:49;102239.66;;;13.46
67509;BMP280;54354;44.724;11.284;2023-02-28T08:07:15;102237.75;;;13.50
67509;BMP280;54354;44.724;11.284;2023-02-28T08:09:41;102242.66;;;13.56
67509;BMP280;54354;44.724;11.284;2023-02-28T08:12:08;102241.13;;;13.58
67509;BMP280;54354;44.724;11.284;2023-02-28T08:14:34;102233.13;;;13.62
67509;BMP280;54354;44.724;11.284;2023-02-28T08:17:00;102241.47;;;13.67
67509;BMP280;54354;44.724;11.284;2023-02-28T08:19:25;102247.91;;;13.73
67509;BMP280;54354;44.724;11.284;2023-02-28T08:21:51;102249.03;;;13.76
67509;BMP280;54354;44.724;11.284;2023-02-28T08:24:16;102262.69;;;13.82
67509;BMP280;54354;44.724;11.284;2023-02-28T08:26:42;102257.00;;;13.87
67509;BMP280;54354;44.724;11.284;2023-02-28T08:29:07;102258.47;;;13.91
67509;BMP280;54354;44.724;11.284;2023-02-28T08:31:33;102259.56;;;13.97
67509;BMP280;54354;44.724;11.284;2023-02-28T08:34:07;102264.91;;;13.94
67509;BMP280;54354;44.724;11.284;2023-02-28T08:36:33;102268.31;;;14.01
67509;BMP280;54354;44.724;11.284;2023-02-28T08:38:59;102261.78;;;14.06
67509;BMP280;54354;44.724;11.284;2023-02-28T08:41:25;102269.38;;;14.15
67509;BMP280;54354;44.724;11.284;2023-02-28T08:43:51;102259.09;;;14.17
67509;BMP280;54354;44.724;11.284;2023-02-28T08:46:16;102248.38;;;14.20
67509;BMP280;54354;44.724;11.284;2023-02-28T08:48:42;102248.72;;;14.26
67509;BMP280;54354;44.724;11.284;2023-02-28T08:51:14;102255.97;;;14.25
67509;BMP280;54354;44.724;11.284;2023-02-28T08:53:46;102255.88;;;14.40
67509;BMP280;54354;44.724;11.284;2023-02-28T08:56:16;102256.59;;;14.44
67509;BMP280;54354;44.724;11.284;2023-02-28T08:58:45;102259.59;;;14.49
67509;BMP280;54354;44.724;11.284;2023-02-28T09:01:19;102251.59;;;14.49
67509;BMP280;54354;44.724;11.284;2023-02-28T09:03:45;102250.00;;;14.55
67509;BMP280;54354;44.724;11.284;2023-02-28T09:06:12;102256.44;;;14.62
67509;BMP280;54354;44.724;11.284;2023-02-28T09:08:39;102255.63;;;14.68
67509;BMP280;54354;44.724;11.284;2023-02-28T09:11:05;102254.41;;;14.76
67509;BMP280;54354;44.724;11.284;2023-02-28T09:13:31;102254.75;;;14.82
67509;BMP280;54354;44.724;11.284;2023-02-28T09:15:59;102255.88;;;14.81
67509;BMP280;54354;44.724;11.284;2023-02-28T09:18:25;102258.50;;;14.88
67509;BMP280;54354;44.724;11.284;2023-02-28T09:20:51;102255.41;;;14.93
67509;BMP280;54354;44.724;11.284;2023-02-28T09:23:17;102258.34;;;14.99
67509;BMP280;54354;44.724;11.284;2023-02-28T09:25:53;102256.06;;;15.01
67509;BMP280;54354;44.724;11.284;2023-02-28T09:28:20;102262.50;;;15.03
67509;BMP280;54354;44.724;11.284;2023-02-28T09:30:48;102264.84;;;15.01
67509;BMP280;54354;44.724;11.284;2023-02-28T09:33:15;102265.50;;;15.09
67509;BMP280;54354;44.724;11.284;2023-02-28T09:35:41;102263.56;;;15.13
67509;BMP280;54354;44.724;11.284;2023-02-28T09:38:09;102269.63;;;15.17
67509;BMP280;54354;44.724;11.284;2023-02-28T09:40:50;102263.91;;;15.15
67509;BMP280;54354;44.724;11.284;2023-02-28T09:43:18;102264.22;;;15.21
67509;BMP280;54354;44.724;11.284;2023-02-28T09:45:51;102268.78;;;15.24
67509;BMP280;54354;44.724;11.284;2023-02-28T09:48:23;102268.66;;;15.31
67509;BMP280;54354;44.724;11.284;2023-02-28T09:51:04;102263.25;;;15.42
67509;BMP280;54354;44.724;11.284;2023-02-28T09:53:35;102263.19;;;15.45
67509;BMP280;54354;44.724;11.284;2023-02-28T09:56:10;102263.88;;;15.49
67509;BMP280;54354;44.724;11.284;2023-02-28T09:58:55;102266.81;;;15.58
67509;BMP280;54354;44.724;11.284;2023-02-28T10:04:25;102268.69;;;15.61
67509;BMP280;54354;44.724;11.284;2023-02-28T10:06:55;102268.31;;;15.63
67509;BMP280;54354;44.724;11.284;2023-02-28T10:09:29;102269.84;;;15.60
67509;BMP280;54354;44.724;11.284;2023-02-28T10:12:00;102267.88;;;15.64
67509;BMP280;54354;44.724;11.284;2023-02-28T10:14:28;102264.81;;;15.66
67509;BMP280;54354;44.724;11.284;2023-02-28T10:17:26;102250.59;;;15.73
67509;BMP280;54354;44.724;11.284;2023-02-28T10:20:02;102260.22;;;15.66
67509;BMP280;54354;44.724;11.284;2023-02-28T10:22:53;102263.63;;;15.71
67509;BMP280;54354;44.724;11.284;2023-02-28T10:25:26;102260.91;;;15.74
67509;BMP280;54354;44.724;11.284;2023-02-28T10:28:13;102255.09;;;15.79
67509;BMP280;54354;44.724;11.284;2023-02-28T10:30:51;102252.81;;;15.78
67509;BMP280;54354;44.724;11.284;2023-02-28T10:33:31;102261.66;;;15.75
67509;BMP280;54354;44.724;11.284;2023-02-28T10:35:58;102250.97;;;15.75
67509;BMP280;54354;44.724;11.284;2023-02-28T10:38:31;102252.16;;;15.70
67509;BMP280;54354;44.724;11.284;2023-02-28T10:41:07;102241.09;;;15.72
67509;BMP280;54354;44.724;11.284;2023-02-28T10:43:34;102250.53;;;15.76
67509;BMP280;54354;44.724;11.284;2023-02-28T10:46:10;102245.63;;;15.75
67509;BMP280;54354;44.724;11.284;2023-02-28T10:48:42;102255.41;;;15.85
67509;BMP280;54354;44.724;11.284;2023-02-28T10:51:14;102250.47;;;15.83
67509;BMP280;54354;44.724;11.284;2023-02-28T10:58:56;102248.00;;;15.96
67509;BMP280;54354;44.724;11.284;2023-02-28T11:01:26;102250.66;;;15.96
67509;BMP280;54354;44.724;11.284;2023-02-28T11:03:59;102246.28;;;16.06
67509;BMP280;54354;44.724;11.284;2023-02-28T11:06:34;102245.91;;;16.07
67509;BMP280;54354;44.724;11.284;2023-02-28T11:09:20;102236.88;;;16.21
67509;BMP280;54354;44.724;11.284;2023-02-28T11:11:48;102239.16;;;16.23
67509;BMP280;54354;44.724;11.284;2023-02-28T11:14:26;102240.59;;;16.27
67509;BMP280;54354;44.724;11.284;2023-02-28T11:16:54;102237.09;;;16.34
67509;BMP280;54354;44.724;11.284;2023-02-28T11:19:36;102233.47;;;16.44
67509;BMP280;54354;44.724;11.284;2023-02-28T11:22:04;102238.72;;;16.47
67509;BMP280;54354;44.724;11.284;2023-02-28T11:24:34;102235.75;;;16.45
67509;BMP280;54354;44.724;11.284;2023-02-28T11:27:01;102235.25;;;16.51
67509;BMP280;54354;44.724;11.284;2023-02-28T11:29:33;102217.69;;;16.49
67509;BMP280;54354;44.724;11.284;2023-02-28T11:32:17;102222.50;;;16.58
67509;BMP280;54354;44.724;11.284;2023-02-28T11:34:44;102216.41;;;16.58
67509;BMP280;54354;44.724;11.284;2023-02-28T11:37:14;102220.50;;;16.62
67509;BMP280;54354;44.724;11.284;2023-02-28T11:39:40;102208.84;;;16.72
67509;BMP280;54354;44.724;11.284;2023-02-28T11:45:43;102202.63;;;16.79
67509;BMP280;54354;44.724;11.284;2023-02-28T11:48:21;102196.13;;;16.60
67509;BMP280;54354;44.724;11.284;2023-02-28T11:51:14;102197.53;;;16.65
67509;BMP280;54354;44.724;11.284;2023-02-28T11:54:05;102192.28;;;16.61
67509;BMP280;54354;44.724;11.284;2023-02-28T11:56:44;102190.88;;;16.53
67509;BMP280;54354;44.724;11.284;2023-02-28T12:02:33;102191.44;;;16.64
67509;BMP280;54354;44.724;11.284;2023-02-28T12:08:04;102183.00;;;16.66
67509;BMP280;54354;44.724;11.284;2023-02-28T12:27:13;102160.97;;;16.78
67509;BMP280;54354;44.724;11.284;2023-02-28T12:29:49;102165.81;;;16.83
67509;BMP280;54354;44.724;11.284;2023-02-28T12:32:37;102166.38;;;16.94
67509;BMP280;54354;44.724;11.284;2023-02-28T12:37:49;102158.75;;;16.93
67509;BMP280;54354;44.724;11.284;2023-02-28T12:40:23;102156.09;;;16.93
67509;BMP280;54354;44.724;11.284;2023-02-28T12:42:59;102142.50;;;16.84
67509;BMP280;54354;44.724;11.284;2023-02-28T12:48:43;102136.00;;;16.85
67509;BMP280;54354;44.724;11.284;2023-02-28T12:51:11;102137.59;;;16.82
67509;BMP280;54354;44.724;11.284;2023-02-28T12:56:39;102125.97;;;16.89
67509;BMP280;54354;44.724;11.284;2023-02-28T12:59:24;102125.47;;;16.94
67509;BMP280;54354;44.724;11.284;2023-02-28T13:02:08;102127.72;;;16.95
67509;BMP280;54354;44.724;11.284;2023-02-28T13:09:59;102101.75;;;17.28
67509;BMP280;54354;44.724;11.284;2023-02-28T13:12:25;102106.09;;;17.39
67509;BMP280;54354;44.724;11.284;2023-02-28T13:15:07;102101.94;;;17.38
67509;BMP280;54354;44.724;11.284;2023-02-28T13:17:39;102109.13;;;17.41
67509;BMP280;54354;44.724;11.284;2023-02-28T13:20:15;102108.06;;;17.38
67509;BMP280;54354;44.724;11.284;2023-02-28T13:22:45;102107.69;;;17.36
67509;BMP280;54354;44.724;11.284;2023-02-28T13:28:10;102092.50;;;17.33
67509;BMP280;54354;44.724;11.284;2023-02-28T13:35:48;102094.91;;;17.27
67509;BMP280;54354;44.724;11.284;2023-02-28T13:38:36;102089.63;;;17.24
67509;BMP280;54354;44.724;11.284;2023-02-28T13:46:25;102094.66;;;17.22
67509;BMP280;54354;44.724;11.284;2023-02-28T13:48:51;102086.28;;;17.20
67509;BMP280;54354;44.724;11.284;2023-02-28T13:54:23;102073.22;;;17.22
67509;BMP280;54354;44.724;11.284;2023-02-28T14:03:07;102068.19;;;17.24
67509;BMP280;54354;44.724;11.284;2023-02-28T14:05:37;102073.97;;;17.22
67509;BMP280;54354;44.724;11.284;2023-02-28T14:08:22;102075.25;;;17.18
67509;BMP280;54354;44.724;11.284;2023-02-28T14:11:04;102068.19;;;17.24
67509;BMP280;54354;44.724;11.284;2023-02-28T14:13:40;102065.19;;;17.22
67509;BMP280;54354;44.724;11.284;2023-02-28T14:16:13;102062.53;;;17.22
67509;BMP280;54354;44.724;11.284;2023-02-28T14:18:56;102046.78;;;17.24
67509;BMP280;54354;44.724;11.284;2023-02-28T14:21:28;102049.66;;;17.17
67509;BMP280;54354;44.724;11.284;2023-02-28T14:27:08;102046.78;;;17.24
67509;BMP280;54354;44.724;11.284;2023-02-28T14:37:52;102040.09;;;17.16
67509;BMP280;54354;44.724;11.284;2023-02-28T14:40:27;102034.41;;;17.14
67509;BMP280;54354;44.724;11.284;2023-02-28T14:42:57;102032.91;;;17.13
67509;BMP280;54354;44.724;11.284;2023-02-28T14:45:23;102033.25;;;17.15
67509;BMP280;54354;44.724;11.284;2023-02-28T14:47:51;102030.25;;;17.13
67509;BMP280;54354;44.724;11.284;2023-02-28T14:50:20;102036.78;;;17.12
67509;BMP280;54354;44.724;11.284;2023-02-28T14:52:46;102032.16;;;17.12
67509;BMP280;54354;44.724;11.284;2023-02-28T14:55:18;102020.03;;;17.08
67509;BMP280;54354;44.724;11.284;2023-02-28T14:57:59;102021.09;;;17.10
67509;BMP280;54354;44.724;11.284;2023-02-28T15:00:31;102021.16;;;17.55
67509;BMP280;54354;44.724;11.284;2023-02-28T15:03:01;102017.44;;;17.20
67509;BMP280;54354;44.724;11.284;2023-02-28T15:08:21;102009.41;;;17.20
67509;BMP280;54354;44.724;11.284;2023-02-28T15:10:56;102010.25;;;17.17
67509;BMP280;54354;44.724;11.284;2023-02-28T15:13:23;102010.25;;;17.17
67509;BMP280;54354;44.724;11.284;2023-02-28T15:15:55;102013.00;;;17.14
67509;BMP280;54354;44.724;11.284;2023-02-28T15:21:02;102017.69;;;17.10
67509;BMP280;54354;44.724;11.284;2023-02-28T15:23:29;102017.28;;;17.11
67509;BMP280;54354;44.724;11.284;2023-02-28T15:25:55;102022.38;;;17.06
67509;BMP280;54354;44.724;11.284;2023-02-28T15:28:22;102014.09;;;17.00
67509;BMP280;54354;44.724;11.284;2023-02-28T15:30:57;102009.91;;;16.99
67509;BMP280;54354;44.724;11.284;2023-02-28T15:33:26;102009.25;;;16.95
67509;BMP280;54354;44.724;11.284;2023-02-28T15:36:04;102007.75;;;16.94
67509;BMP280;54354;44.724;11.284;2023-02-28T15:38:34;102013.19;;;16.90
67509;BMP280;54354;44.724;11.284;2023-02-28T15:41:00;102016.34;;;17.01
67509;BMP280;54354;44.724;11.284;2023-02-28T15:43:33;102014.44;;;17.02
67509;BMP280;54354;44.724;11.284;2023-02-28T15:46:05;102011.06;;;16.98
67509;BMP280;54354;44.724;11.284;2023-02-28T15:48:36;102014.09;;;17.00
67509;BMP280;54354;44.724;11.284;2023-02-28T15:51:07;102011.16;;;16.94
67509;BMP280;54354;44.724;11.284;2023-02-28T15:53:37;102003.13;;;16.94
67509;BMP280;54354;44.724;11.284;2023-02-28T15:56:12;102004.31;;;16.93
67509;BMP280;54354;44.724;11.284;2023-02-28T15:58:41;102003.97;;;16.91
67509;BMP280;54354;44.724;11.284;2023-02-28T16:01:18;101999.81;;;16.90
67509;BMP280;54354;44.724;11.284;2023-02-28T16:03:47;101991.03;;;16.90
67509;BMP280;54354;44.724;11.284;2023-02-28T16:08:42;101981.34;;;16.96